sensor_id;sensor_type;location;lat;lon;timestamp;P1;durP1;ratioP1;P2;durP2;ratioP2
25649;SDS011;13505;45.196;5.696;2024-01-16T05:30:26;20.08;;;9.48;;
25649;SDS011;13505;45.196;5.696;2024-01-16T05:35:16;19.00;;;9.98;;
25649;SDS011;13505;45.196;5.696;2024-01-16T05:40:07;22.85;;;10.55;;
25649;SDS011;13505;45.196;5.696;2024-01-16T05:44:58;18.52;;;10.55;;
25649;SDS011;13505;45.196;5.696;2024-01-16T05:49:48;18.67;;;10.40;;
25649;SDS011;13505;45.196;5.696;2024-01-16T05:54:39;20.67;;;10.02;;
25649;SDS011;13505;45.196;5.696;2024-01-16T05:59:29;21.77;;;10.52;;
25649;SDS011;13505;45.196;5.696;2024-01-16T06:04:19;20.35;;;10.60;;
25649;SDS011;13505;45.196;5.696;2024-01-16T06:09:10;19.75;;;10.70;;
25649;SDS011;13505;45.196;5.696;2024-01-16T06:14:03;23.60;;;11.07;;
25649;SDS011;13505;45.196;5.696;2024-01-16T06:18:54;18.70;;;10.52;;
25649;SDS011;13505;45.196;5.696;2024-01-16T06:23:44;19.00;;;10.95;;
25649;SDS011;13505;45.196;5.696;2024-01-16T06:28:34;21.55;;;11.18;;
25649;SDS011;13505;45.196;5.696;2024-01-16T06:33:25;32.58;;;13.38;;
25649;SDS011;13505;45.196;5.696;2024-01-16T06:38:15;25.15;;;12.55;;
25649;SDS011;13505;45.196;5.696;2024-01-16T06:43:06;29.63;;;13.27;;
25649;SDS011;13505;45.196;5.696;2024-01-16T06:47:56;28.15;;;13.25;;
25649;SDS011;13505;45.196;5.696;2024-01-16T06:52:46;32.05;;;14.38;;
25649;SDS011;13505;45.196;5.696;2024-01-16T06:57:37;31.60;;;15.48;;
25649;SDS011;13505;45.196;5.696;2024-01-16T07:02:27;23.33;;;11.52;;
25649;SDS011;13505;45.196;5.696;2024-01-16T07:07:18;29.35;;;13.65;;
25649;SDS011;13505;45.196;5.696;2024-01-16T07:12:08;30.55;;;13.65;;
25649;SDS011;13505;45.196;5.696;2024-01-16T07:16:58;32.40;;;14.00;;
25649;SDS011;13505;45.196;5.696;2024-01-16T07:21:49;34.28;;;15.38;;
25649;SDS011;13505;45.196;5.696;2024-01-16T07:26:39;32.97;;;15.15;;
25649;SDS011;13505;45.196;5.696;2024-01-16T07:31:31;30.98;;;15.45;;
25649;SDS011;13505;45.196;5.696;2024-01-16T07:36:21;33.53;;;15.40;;
25649;SDS011;13505;45.196;5.696;2024-01-16T07:41:12;34.08;;;14.95;;
25649;SDS011;13505;45.196;5.696;2024-01-16T07:46:02;29.40;;;14.38;;
25649;SDS011;13505;45.196;5.696;2024-01-16T07:50:53;30.63;;;15.27;;
25649;SDS011;13505;45.196;5.696;2024-01-16T07:55:43;31.35;;;14.63;;
25649;SDS011;13505;45.196;5.696;2024-01-16T08:00:34;31.77;;;14.32;;
25649;SDS011;13505;45.196;5.696;2024-01-16T08:05:24;27.58;;;13.80;;
25649;SDS011;13505;45.196;5.696;2024-01-16T08:10:17;30.77;;;14.68;;
25649;SDS011;13505;45.196;5.696;2024-01-16T08:15:08;37.22;;;17.77;;
25649;SDS011;13505;45.196;5.696;2024-01-16T08:19:58;37.33;;;16.17;;
25649;SDS011;13505;45.196;5.696;2024-01-16T08:24:53;43.50;;;17.92;;
25649;SDS011;13505;45.196;5.696;2024-01-16T08:29:43;37.38;;;16.55;;
25649;SDS011;13505;45.196;5.696;2024-01-16T08:34:34;39.05;;;15.90;;
25649;SDS011;13505;45.196;5.696;2024-01-16T08:39:24;34.80;;;15.63;;
25649;SDS011;13505;45.196;5.696;2024-01-16T08:44:14;36.75;;;16.27;;
25649;SDS011;13505;45.196;5.696;2024-01-16T08:49:05;37.97;;;16.48;;
25649;SDS011;13505;45.196;5.696;2024-01-16T08:53:55;34.90;;;15.30;;
25649;SDS011;13505;45.196;5.696;2024-01-16T08:58:46;38.97;;;15.05;;
25649;SDS011;13505;45.196;5.696;2024-01-16T09:03:37;31.90;;;13.80;;
25649;SDS011;13505;45.196;5.696;2024-01-16T09:08:27;30.50;;;13.65;;
25649;SDS011;13505;45.196;5.696;2024-01-16T09:13:17;37.33;;;16.10;;
25649;SDS011;13505;45.196;5.696;2024-01-16T09:18:08;42.70;;;18.00;;
25649;SDS011;13505;45.196;5.696;2024-01-16T09:22:58;41.63;;;16.67;;
25649;SDS011;13505;45.196;5.696;2024-01-16T09:27:48;46.53;;;20.60;;
25649;SDS011;13505;45.196;5.696;2024-01-16T09:32:39;34.92;;;16.50;;
25649;SDS011;13505;45.196;5.696;2024-01-16T09:37:29;36.83;;;16.23;;
25649;SDS011;13505;45.196;5.696;2024-01-16T09:42:19;30.92;;;15.10;;
25649;SDS011;13505;45.196;5.696;2024-01-16T09:47:10;34.72;;;15.75;;
25649;SDS011;13505;45.196;5.696;2024-01-16T09:52:01;41.38;;;17.33;;
25649;SDS011;13505;45.196;5.696;2024-01-16T09:56:52;36.22;;;16.95;;
25649;SDS011;13505;45.196;5.696;2024-01-16T10:01:44;37.38;;;16.85;;
25649;SDS011;13505;45.196;5.696;2024-01-16T10:06:35;38.05;;;18.60;;
25649;SDS011;13505;45.196;5.696;2024-01-16T10:11:28;40.38;;;19.90;;
25649;SDS011;13505;45.196;5.696;2024-01-16T10:16:19;41.22;;;19.58;;
25649;SDS011;13505;45.196;5.696;2024-01-16T10:21:19;42.83;;;20.08;;
25649;SDS011;13505;45.196;5.696;2024-01-16T10:26:12;34.67;;;17.73;;
25649;SDS011;13505;45.196;5.696;2024-01-16T10:31:04;35.42;;;18.60;;
25649;SDS011;13505;45.196;5.696;2024-01-16T10:46:08;33.75;;;16.80;;
25649;SDS011;13505;45.196;5.696;2024-01-16T10:51:02;29.88;;;15.50;;
25649;SDS011;13505;45.196;5.696;2024-01-16T10:56:01;38.73;;;17.57;;
25649;SDS011;13505;45.196;5.696;2024-01-16T11:00:53;35.17;;;16.00;;
25649;SDS011;13505;45.196;5.696;2024-01-16T11:05:44;34.97;;;16.58;;
25649;SDS011;13505;45.196;5.696;2024-01-16T11:10:36;38.67;;;18.75;;
25649;SDS011;13505;45.196;5.696;2024-01-16T11:15:27;34.13;;;18.70;;
25649;SDS011;13505;45.196;5.696;2024-01-16T11:20:18;31.60;;;17.42;;
25649;SDS011;13505;45.196;5.696;2024-01-16T11:25:10;40.38;;;19.73;;
25649;SDS011;13505;45.196;5.696;2024-01-16T11:30:07;35.58;;;17.42;;
25649;SDS011;13505;45.196;5.696;2024-01-16T11:34:58;35.00;;;17.35;;
25649;SDS011;13505;45.196;5.696;2024-01-16T11:39:49;36.10;;;17.38;;
25649;SDS011;13505;45.196;5.696;2024-01-16T11:44:49;31.52;;;16.38;;
25649;SDS011;13505;45.196;5.696;2024-01-16T11:49:44;26.98;;;15.68;;
25649;SDS011;13505;45.196;5.696;2024-01-16T11:54:35;26.23;;;14.52;;
25649;SDS011;13505;45.196;5.696;2024-01-16T12:04:29;24.13;;;12.25;;
25649;SDS011;13505;45.196;5.696;2024-01-16T12:09:19;22.27;;;13.50;;
25649;SDS011;13505;45.196;5.696;2024-01-16T12:14:10;23.42;;;12.45;;
25649;SDS011;13505;45.196;5.696;2024-01-16T12:19:06;17.85;;;10.07;;
25649;SDS011;13505;45.196;5.696;2024-01-16T12:23:58;21.00;;;10.90;;
25649;SDS011;13505;45.196;5.696;2024-01-16T12:28:52;20.75;;;11.35;;
25649;SDS011;13505;45.196;5.696;2024-01-16T12:33:43;29.20;;;15.68;;
25649;SDS011;13505;45.196;5.696;2024-01-16T12:38:33;31.95;;;15.57;;
25649;SDS011;13505;45.196;5.696;2024-01-16T12:43:25;27.80;;;14.27;;
25649;SDS011;13505;45.196;5.696;2024-01-16T12:48:21;31.02;;;15.32;;
25649;SDS011;13505;45.196;5.696;2024-01-16T12:53:13;25.00;;;14.65;;
25649;SDS011;13505;45.196;5.696;2024-01-16T12:58:13;27.58;;;15.10;;
25649;SDS011;13505;45.196;5.696;2024-01-16T13:03:07;26.23;;;14.07;;
25649;SDS011;13505;45.196;5.696;2024-01-16T13:07:59;26.02;;;14.45;;
25649;SDS011;13505;45.196;5.696;2024-01-16T13:13:10;23.83;;;13.00;;
25649;SDS011;13505;45.196;5.696;2024-01-16T13:18:03;24.48;;;12.82;;
25649;SDS011;13505;45.196;5.696;2024-01-16T13:22:54;20.85;;;11.88;;
25649;SDS011;13505;45.196;5.696;2024-01-16T13:27:44;24.52;;;11.63;;
25649;SDS011;13505;45.196;5.696;2024-01-16T13:32:36;17.65;;;10.18;;
25649;SDS011;13505;45.196;5.696;2024-01-16T13:37:26;17.23;;;10.25;;
25649;SDS011;13505;45.196;5.696;2024-01-16T13:42:17;17.40;;;10.07;;
25649;SDS011;13505;45.196;5.696;2024-01-16T13:47:09;23.83;;;10.15;;
25649;SDS011;13505;45.196;5.696;2024-01-16T13:52:00;17.40;;;10.18;;
25649;SDS011;13505;45.196;5.696;2024-01-16T13:56:50;15.80;;;9.80;;
25649;SDS011;13505;45.196;5.696;2024-01-16T14:01:40;19.85;;;9.85;;
25649;SDS011;13505;45.196;5.696;2024-01-16T14:06:31;15.33;;;9.37;;
25649;SDS011;13505;45.196;5.696;2024-01-16T14:11:21;15.30;;;9.10;;
25649;SDS011;13505;45.196;5.696;2024-01-16T14:16:11;16.23;;;9.65;;
25649;SDS011;13505;45.196;5.696;2024-01-16T14:21:02;16.87;;;9.30;;
25649;SDS011;13505;45.196;5.696;2024-01-16T14:25:54;18.80;;;10.40;;
25649;SDS011;13505;45.196;5.696;2024-01-16T14:30:44;17.33;;;10.63;;
25649;SDS011;13505;45.196;5.696;2024-01-16T14:35:35;17.35;;;10.27;;
25649;SDS011;13505;45.196;5.696;2024-01-16T14:40:25;18.08;;;10.98;;
25649;SDS011;13505;45.196;5.696;2024-01-16T14:45:16;18.35;;;10.82;;
25649;SDS011;13505;45.196;5.696;2024-01-16T14:50:08;17.58;;;10.10;;
25649;SDS011;13505;45.196;5.696;2024-01-16T14:55:03;18.17;;;10.35;;
25649;SDS011;13505;45.196;5.696;2024-01-16T14:59:53;19.35;;;9.13;;
25649;SDS011;13505;45.196;5.696;2024-01-16T15:04:44;15.93;;;9.20;;
25649;SDS011;13505;45.196;5.696;2024-01-16T15:09:34;15.10;;;9.05;;
25649;SDS011;13505;45.196;5.696;2024-01-16T15:14:27;13.52;;;7.97;;
25649;SDS011;13505;45.196;5.696;2024-01-16T15:19:17;15.32;;;8.63;;
25649;SDS011;13505;45.196;5.696;2024-01-16T15:24:08;14.75;;;8.57;;
25649;SDS011;13505;45.196;5.696;2024-01-16T15:28:58;16.20;;;8.88;;
25649;SDS011;13505;45.196;5.696;2024-01-16T15:33:48;12.98;;;8.38;;
25649;SDS011;13505;45.196;5.696;2024-01-16T15:38:39;14.95;;;8.30;;
25649;SDS011;13505;45.196;5.696;2024-01-16T15:43:29;13.45;;;8.70;;
25649;SDS011;13505;45.196;5.696;2024-01-16T15:48:20;15.98;;;8.63;;
25649;SDS011;13505;45.196;5.696;2024-01-16T15:53:10;15.57;;;8.13;;
25649;SDS011;13505;45.196;5.696;2024-01-16T15:58:02;14.43;;;7.75;;
25649;SDS011;13505;45.196;5.696;2024-01-16T16:02:53;13.07;;;7.60;;
25649;SDS011;13505;45.196;5.696;2024-01-16T16:07:43;13.25;;;7.78;;
25649;SDS011;13505;45.196;5.696;2024-01-16T16:12:35;16.92;;;8.43;;
25649;SDS011;13505;45.196;5.696;2024-01-16T16:17:25;13.10;;;7.57;;
25649;SDS011;13505;45.196;5.696;2024-01-16T16:22:16;11.85;;;7.63;;
25649;SDS011;13505;45.196;5.696;2024-01-16T16:27:22;12.60;;;7.65;;
25649;SDS011;13505;45.196;5.696;2024-01-16T16:32:14;10.70;;;6.50;;
25649;SDS011;13505;45.196;5.696;2024-01-16T16:37:04;12.40;;;7.32;;
25649;SDS011;13505;45.196;5.696;2024-01-16T16:41:54;14.27;;;6.70;;
25649;SDS011;13505;45.196;5.696;2024-01-16T16:46:45;12.45;;;7.13;;
25649;SDS011;13505;45.196;5.696;2024-01-16T16:51:36;11.93;;;7.00;;
25649;SDS011;13505;45.196;5.696;2024-01-16T16:56:31;14.73;;;7.40;;
25649;SDS011;13505;45.196;5.696;2024-01-16T17:01:22;17.42;;;8.57;;
25649;SDS011;13505;45.196;5.696;2024-01-16T17:06:12;16.95;;;9.25;;
25649;SDS011;13505;45.196;5.696;2024-01-16T17:11:06;16.80;;;8.68;;
25649;SDS011;13505;45.196;5.696;2024-01-16T17:15:59;13.65;;;8.18;;
25649;SDS011;13505;45.196;5.696;2024-01-16T17:20:50;14.32;;;7.80;;
25649;SDS011;13505;45.196;5.696;2024-01-16T17:25:41;14.35;;;8.18;;
25649;SDS011;13505;45.196;5.696;2024-01-16T17:30:32;14.63;;;7.72;;
25649;SDS011;13505;45.196;5.696;2024-01-16T17:35:22;12.35;;;7.60;;
25649;SDS011;13505;45.196;5.696;2024-01-16T17:40:13;15.63;;;8.02;;
25649;SDS011;13505;45.196;5.696;2024-01-16T17:45:04;14.18;;;7.90;;
25649;SDS011;13505;45.196;5.696;2024-01-16T17:49:57;14.20;;;7.75;;
25649;SDS011;13505;45.196;5.696;2024-01-16T17:54:47;12.85;;;7.47;;
25649;SDS011;13505;45.196;5.696;2024-01-16T17:59:40;17.40;;;7.72;;
25649;SDS011;13505;45.196;5.696;2024-01-16T18:04:31;11.65;;;7.20;;
25649;SDS011;13505;45.196;5.696;2024-01-16T18:09:21;13.23;;;6.93;;
25649;SDS011;13505;45.196;5.696;2024-01-16T18:14:12;11.02;;;6.50;;
25649;SDS011;13505;45.196;5.696;2024-01-16T18:19:03;13.93;;;7.10;;
25649;SDS011;13505;45.196;5.696;2024-01-16T18:23:54;16.60;;;8.02;;
25649;SDS011;13505;45.196;5.696;2024-01-16T18:28:45;14.88;;;8.95;;
25649;SDS011;13505;45.196;5.696;2024-01-16T18:33:35;17.70;;;10.32;;
25649;SDS011;13505;45.196;5.696;2024-01-16T18:38:28;20.50;;;10.20;;
25649;SDS011;13505;45.196;5.696;2024-01-16T18:43:18;15.55;;;8.77;;
25649;SDS011;13505;45.196;5.696;2024-01-16T18:48:08;16.83;;;9.20;;
25649;SDS011;13505;45.196;5.696;2024-01-16T18:52:59;18.65;;;10.15;;
25649;SDS011;13505;45.196;5.696;2024-01-16T18:57:49;21.90;;;11.25;;
25649;SDS011;13505;45.196;5.696;2024-01-16T19:02:44;16.13;;;9.55;;
25649;SDS011;13505;45.196;5.696;2024-01-16T19:07:35;19.98;;;10.48;;
25649;SDS011;13505;45.196;5.696;2024-01-16T19:12:25;21.42;;;11.20;;
25649;SDS011;13505;45.196;5.696;2024-01-16T19:17:16;20.85;;;11.88;;
25649;SDS011;13505;45.196;5.696;2024-01-16T19:22:07;22.08;;;12.57;;
25649;SDS011;13505;45.196;5.696;2024-01-16T19:26:59;24.95;;;12.80;;
25649;SDS011;13505;45.196;5.696;2024-01-16T19:31:49;25.50;;;13.55;;
25649;SDS011;13505;45.196;5.696;2024-01-16T19:36:41;26.55;;;14.35;;
25649;SDS011;13505;45.196;5.696;2024-01-16T19:41:31;32.38;;;15.25;;
25649;SDS011;13505;45.196;5.696;2024-01-16T19:46:22;26.02;;;14.05;;
25649;SDS011;13505;45.196;5.696;2024-01-16T19:51:12;28.75;;;15.23;;
25649;SDS011;13505;45.196;5.696;2024-01-16T19:56:04;29.63;;;15.23;;
25649;SDS011;13505;45.196;5.696;2024-01-16T20:00:57;29.50;;;15.05;;
25649;SDS011;13505;45.196;5.696;2024-01-16T20:05:47;27.65;;;14.65;;
25649;SDS011;13505;45.196;5.696;2024-01-16T20:10:37;27.73;;;15.57;;
25649;SDS011;13505;45.196;5.696;2024-01-16T20:15:29;28.60;;;15.52;;
25649;SDS011;13505;45.196;5.696;2024-01-16T20:20:21;33.38;;;18.02;;
25649;SDS011;13505;45.196;5.696;2024-01-16T20:25:11;32.08;;;17.60;;
25649;SDS011;13505;45.196;5.696;2024-01-16T20:30:08;33.75;;;18.08;;
25649;SDS011;13505;45.196;5.696;2024-01-16T20:35:00;35.97;;;18.20;;
25649;SDS011;13505;45.196;5.696;2024-01-16T20:39:51;35.05;;;18.60;;
25649;SDS011;13505;45.196;5.696;2024-01-16T20:44:41;35.30;;;18.27;;
25649;SDS011;13505;45.196;5.696;2024-01-16T20:49:32;35.67;;;18.52;;
25649;SDS011;13505;45.196;5.696;2024-01-16T20:54:23;34.55;;;17.98;;
25649;SDS011;13505;45.196;5.696;2024-01-16T20:59:14;35.22;;;17.67;;
25649;SDS011;13505;45.196;5.696;2024-01-16T21:04:05;34.22;;;17.40;;
25649;SDS011;13505;45.196;5.696;2024-01-16T21:08:59;34.53;;;18.10;;
25649;SDS011;13505;45.196;5.696;2024-01-16T21:13:49;31.92;;;17.45;;
25649;SDS011;13505;45.196;5.696;2024-01-16T21:18:41;31.85;;;16.70;;
25649;SDS011;13505;45.196;5.696;2024-01-16T21:23:33;33.42;;;17.58;;
25649;SDS011;13505;45.196;5.696;2024-01-16T21:28:23;33.00;;;16.75;;
25649;SDS011;13505;45.196;5.696;2024-01-16T21:33:14;33.88;;;16.70;;
25649;SDS011;13505;45.196;5.696;2024-01-16T21:38:04;33.30;;;17.67;;
25649;SDS011;13505;45.196;5.696;2024-01-16T21:42:54;35.20;;;17.02;;
25649;SDS011;13505;45.196;5.696;2024-01-16T21:47:45;33.97;;;18.27;;
25649;SDS011;13505;45.196;5.696;2024-01-16T21:52:35;34.15;;;18.15;;
25649;SDS011;13505;45.196;5.696;2024-01-16T21:57:26;30.97;;;17.97;;
25649;SDS011;13505;45.196;5.696;2024-01-16T22:02:19;39.42;;;18.33;;
25649;SDS011;13505;45.196;5.696;2024-01-16T22:07:10;33.70;;;18.47;;
25649;SDS011;13505;45.196;5.696;2024-01-16T22:12:00;41.75;;;21.45;;
25649;SDS011;13505;45.196;5.696;2024-01-16T22:16:51;42.80;;;20.67;;
25649;SDS011;13505;45.196;5.696;2024-01-16T22:21:41;33.42;;;17.30;;
25649;SDS011;13505;45.196;5.696;2024-01-16T22:26:32;39.85;;;19.05;;
25649;SDS011;13505;45.196;5.696;2024-01-16T22:31:22;33.03;;;16.35;;
25649;SDS011;13505;45.196;5.696;2024-01-16T22:36:13;28.40;;;15.23;;
25649;SDS011;13505;45.196;5.696;2024-01-16T22:41:03;30.15;;;16.02;;
25649;SDS011;13505;45.196;5.696;2024-01-16T22:45:56;27.73;;;14.93;;
25649;SDS011;13505;45.196;5.696;2024-01-16T22:50:47;29.05;;;15.45;;
25649;SDS011;13505;45.196;5.696;2024-01-16T22:55:39;26.83;;;15.13;;
